Time;durP1;ratioP1;P1;durP2;ratioP2;P2;SDS_P1;SDS_P2;PMS_P1;PMS_P2;Temp;Humidity;BMP_temperature;BMP_pressure;BME280_temperature;BME280_humidity;BME280_pressure;Samples;Min_cycle;Max_cycle;Signal;HPM_P1;HPM_P2
2022/07/21 00:01:30;;;;;;;;;;;;;;;18.40;56.88;100424.84;1675807;84;20251;-71
2022/07/21 00:03:56;;;;;;;;;;;;;;;18.40;56.72;100420.22;1675701;84;20581;-71
2022/07/21 00:06:22;;;;;;;;;;;;;;;18.41;56.55;100427.22;1675162;84;21526;-70
2022/07/21 00:08:48;;;;;;;;;;;;;;;18.42;56.39;100425.30;1675637;84;20172;-70
2022/07/21 00:11:16;;;;;;;;;;;;;;;18.43;56.42;100420.95;1677677;85;20178;-71
2022/07/21 00:13:43;;;;;;;;;;;;;;;18.43;56.38;100420.16;1678012;85;20149;-70
2022/07/21 00:16:10;;;;;;;;;;;;;;;18.41;56.34;100429.92;1677356;84;20173;-70
2022/07/21 00:18:37;;;;;;;;;;;;;;;18.41;56.24;100423.16;1677702;85;21563;-70
2022/07/21 00:21:03;;;;;;;;;;;;;;;18.40;56.10;100418.87;1675240;84;20213;-71
2022/07/21 00:23:30;;;;;;;;;;;;;;;18.39;55.81;100417.25;1676093;84;20201;-70
2022/07/21 00:25:56;;;;;;;;;;;;;;;18.40;55.58;100418.87;1675646;84;20170;-71
2022/07/21 00:28:23;;;;;;;;;;;;;;;18.41;55.34;100415.60;1675222;84;20247;-70
2022/07/21 00:30:50;;;;;;;;;;;;;;;18.42;55.32;100420.69;1676904;84;21268;-72
2022/07/21 00:33:16;;;;;;;;;;;;;;;18.42;55.26;100415.84;1676168;84;20232;-72
2022/07/21 00:35:43;;;;;;;;;;;;;;;18.42;55.01;100421.24;1675690;84;20221;-70
2022/07/21 00:38:09;;;;;;;;;;;;;;;18.41;55.21;100419.66;1678087;85;20133;-72
2022/07/21 00:40:36;;;;;;;;;;;;;;;18.38;55.29;100420.28;1677903;85;20294;-71
2022/07/21 00:43:02;;;;;;;;;;;;;;;18.38;55.21;100421.08;1677866;85;21123;-71
2022/07/21 00:45:29;;;;;;;;;;;;;;;18.38;55.25;100422.43;1674895;84;20138;-71
2022/07/21 00:47:56;;;;;;;;;;;;;;;18.36;55.30;100417.91;1676419;84;20451;-70
2022/07/21 00:50:22;;;;;;;;;;;;;;;18.36;55.26;100415.73;1675886;84;20153;-71
2022/07/21 00:52:49;;;;;;;;;;;;;;;18.17;55.70;100421.40;1675858;84;20161;-71
2022/07/21 00:55:17;;;;;;;;;;;;;;;18.12;55.63;100412.85;1677680;84;21805;-71
2022/07/21 00:57:44;;;;;;;;;;;;;;;18.10;55.48;100423.72;1677119;84;20228;-71
2022/07/21 01:00:13;;;;;;;;;;;;;;;18.08;55.56;100418.64;1675356;84;20149;-70
2022/07/21 01:02:39;;;;;;;;;;;;;;;18.04;55.96;100417.11;1676520;84;20137;-72
2022/07/21 01:05:12;;;;;;;;;;;;;;;18.00;56.23;100417.50;1674041;84;20219;-71
2022/07/21 01:07:35;;;;;;;;;;;;;;;18.13;56.13;100415.81;1677225;84;21119;-70
2022/07/21 01:10:03;;;;;;;;;;;;;;;18.12;56.26;100412.85;1677023;84;20244;-72
2022/07/21 01:12:31;;;;;;;;;;;;;;;18.05;56.47;100424.11;1651086;84;20180;-71
2022/07/21 01:14:57;;;;;;;;;;;;;;;17.98;56.26;100421.05;1676133;84;20470;-71
2022/07/21 01:17:24;;;;;;;;;;;;;;;17.92;55.98;100425.55;1645036;85;20170;-71
2022/07/21 01:19:51;;;;;;;;;;;;;;;17.87;55.71;100423.78;1677906;85;21145;-70
2022/07/21 01:22:18;;;;;;;;;;;;;;;17.78;55.73;100429.12;1676610;85;20502;-70
2022/07/21 01:24:45;;;;;;;;;;;;;;;17.73;55.61;100428.41;1673328;84;20215;-72
2022/07/21 01:27:12;;;;;;;;;;;;;;;17.69;55.67;100426.87;1675055;84;20844;-71
2022/07/21 01:29:39;;;;;;;;;;;;;;;17.65;55.58;100426.47;1675412;84;20265;-71
2022/07/21 01:32:06;;;;;;;;;;;;;;;17.57;55.84;100423.40;1675994;84;21327;-71
2022/07/21 01:34:32;;;;;;;;;;;;;;;17.50;56.05;100428.41;1675802;84;20643;-71
2022/07/21 01:36:59;;;;;;;;;;;;;;;17.47;56.32;100429.05;1676080;84;20216;-70
2022/07/21 01:42:11;;;;;;;;;;;;;;;17.40;56.49;100427.30;1674983;84;20144;-71
2022/07/21 01:44:38;;;;;;;;;;;;;;;17.37;56.54;100423.06;1674186;84;21824;-71
2022/07/21 01:47:05;;;;;;;;;;;;;;;17.28;56.71;100421.66;1676450;84;20223;-70
2022/07/21 01:49:31;;;;;;;;;;;;;;;17.33;56.69;100417.48;1676535;84;20540;-71
2022/07/21 01:51:58;;;;;;;;;;;;;;;17.32;56.65;100411.84;1676387;84;20631;-71
2022/07/21 01:54:24;;;;;;;;;;;;;;;17.29;56.72;100414.59;1676149;84;20202;-71
2022/07/21 01:56:51;;;;;;;;;;;;;;;17.28;56.90;100413.56;1675466;84;21123;-71
2022/07/21 01:59:18;;;;;;;;;;;;;;;17.26;57.03;100421.95;1677127;84;20177;-70
2022/07/21 02:01:44;;;;;;;;;;;;;;;17.10;57.45;100420.14;1649190;87;20161;-70
2022/07/21 02:04:11;;;;;;;;;;;;;;;17.16;57.49;100414.64;1677758;85;20444;-71
2022/07/21 02:06:38;;;;;;;;;;;;;;;17.05;57.65;100413.52;1675304;84;20455;-71
2022/07/21 02:09:06;;;;;;;;;;;;;;;16.93;58.00;100411.09;1675336;84;21163;-71
2022/07/21 02:11:33;;;;;;;;;;;;;;;16.88;58.04;100409.31;1673275;84;20178;-71
2022/07/21 02:13:59;;;;;;;;;;;;;;;16.88;58.00;100407.97;1675394;84;20218;-70
2022/07/21 02:16:27;;;;;;;;;;;;;;;16.87;57.98;100412.54;1675184;84;20171;-71
2022/07/21 02:18:54;;;;;;;;;;;;;;;16.86;58.06;100412.86;1670893;84;20181;-71
2022/07/21 02:21:20;;;;;;;;;;;;;;;16.95;57.83;100415.65;1674384;84;21105;-71
2022/07/21 02:23:46;;;;;;;;;;;;;;;17.02;57.51;100410.08;1675906;84;20201;-70
2022/07/21 02:26:13;;;;;;;;;;;;;;;17.03;57.23;100407.62;1677330;84;20181;-70
2022/07/21 02:28:41;;;;;;;;;;;;;;;17.04;56.96;100408.41;1676991;84;20493;-72
2022/07/21 02:31:07;;;;;;;;;;;;;;;17.03;56.85;100414.36;1678250;85;20145;-71
2022/07/21 02:33:34;;;;;;;;;;;;;;;17.02;56.85;100412.78;1679544;85;21236;-70
2022/07/21 02:36:01;;;;;;;;;;;;;;;17.01;56.82;100413.06;1677916;85;20200;-72
2022/07/21 02:38:27;;;;;;;;;;;;;;;17.03;56.89;100411.66;1677408;85;20149;-71
2022/07/21 02:40:54;;;;;;;;;;;;;;;17.06;56.86;100413.76;1677603;85;20187;-72
2022/07/21 02:43:21;;;;;;;;;;;;;;;17.08;56.74;100411.56;1677065;84;20181;-70
2022/07/21 02:45:47;;;;;;;;;;;;;;;17.07;56.52;100403.20;1676279;84;21176;-70
2022/07/21 02:48:14;;;;;;;;;;;;;;;17.06;56.30;100408.36;1648973;87;20147;-71
2022/07/21 02:50:42;;;;;;;;;;;;;;;17.06;56.42;100404.87;1677143;84;20451;-71
2022/07/21 02:53:12;;;;;;;;;;;;;;;17.06;56.46;100398.12;1677769;85;20654;-71
2022/07/21 02:55:40;;;;;;;;;;;;;;;17.06;56.57;100400.27;1677794;84;20157;-71
2022/07/21 02:58:11;;;;;;;;;;;;;;;17.09;56.59;100406.97;1675633;84;21117;-70
2022/07/21 03:00:40;;;;;;;;;;;;;;;17.16;56.68;100401.94;1676103;84;20239;-70
2022/07/21 03:03:06;;;;;;;;;;;;;;;17.18;56.61;100401.65;1650555;87;20187;-71
2022/07/21 03:05:33;;;;;;;;;;;;;;;17.19;56.63;100393.23;1633325;85;20671;-70
2022/07/21 03:07:59;;;;;;;;;;;;;;;17.23;56.54;100403.66;1652639;85;20155;-71
2022/07/21 03:10:26;;;;;;;;;;;;;;;17.27;56.43;100397.09;1656599;85;20877;-71
2022/07/21 03:12:53;;;;;;;;;;;;;;;17.30;56.44;100396.48;1655159;85;20211;-70
2022/07/21 03:15:19;;;;;;;;;;;;;;;17.29;56.01;100383.55;1643273;85;20148;-71
2022/07/21 03:17:46;;;;;;;;;;;;;;;17.29;55.81;100383.55;1652067;84;20422;-71
2022/07/21 03:20:13;;;;;;;;;;;;;;;17.33;55.85;100388.58;1671486;84;20175;-71
2022/07/21 03:22:39;;;;;;;;;;;;;;;17.32;55.70;100391.59;1647675;87;21129;-71
2022/07/21 03:25:06;;;;;;;;;;;;;;;17.35;55.85;100390.98;1649193;87;20169;-71
2022/07/21 03:27:35;;;;;;;;;;;;;;;17.38;55.75;100384.18;1676208;84;20215;-71
2022/07/21 03:30:00;;;;;;;;;;;;;;;17.39;55.59;100390.61;1675569;84;20206;-70
2022/07/21 03:32:27;;;;;;;;;;;;;;;17.43;55.34;100386.19;1676366;84;20184;-72
2022/07/21 03:34:54;;;;;;;;;;;;;;;17.41;55.10;100386.27;1675481;84;21141;-71
2022/07/21 03:37:22;;;;;;;;;;;;;;;17.45;55.29;100388.04;1676053;84;20173;-70
2022/07/21 03:39:48;;;;;;;;;;;;;;;17.51;55.20;100390.07;1675533;84;20423;-71
2022/07/21 03:42:14;;;;;;;;;;;;;;;17.57;55.06;100392.34;1677200;84;20163;-72
2022/07/21 03:44:41;;;;;;;;;;;;;;;17.63;54.89;100390.84;1673840;84;20407;-72
2022/07/21 03:47:07;;;;;;;;;;;;;;;17.68;54.89;100387.48;1673089;84;21618;-72
2022/07/21 03:49:34;;;;;;;;;;;;;;;17.76;54.97;100395.38;1676115;84;20160;-70
2022/07/21 03:52:01;;;;;;;;;;;;;;;17.81;54.64;100385.28;1647890;85;20696;-71
2022/07/21 03:54:27;;;;;;;;;;;;;;;17.89;54.67;100386.98;1675250;84;20204;-72
2022/07/21 03:56:53;;;;;;;;;;;;;;;17.92;54.39;100385.80;1675806;84;20148;-71
2022/07/21 03:59:20;;;;;;;;;;;;;;;17.96;54.43;100389.48;1674937;84;21139;-71
2022/07/21 04:01:46;;;;;;;;;;;;;;;18.00;54.25;100385.63;1675880;84;20177;-71
2022/07/21 04:04:14;;;;;;;;;;;;;;;18.03;53.92;100384.98;1675356;84;20205;-70
2022/07/21 04:06:42;;;;;;;;;;;;;;;18.10;54.29;100376.42;1676476;84;20420;-71
2022/07/21 04:09:09;;;;;;;;;;;;;;;18.18;54.52;100370.27;1675984;84;20230;-70
2022/07/21 04:11:37;;;;;;;;;;;;;;;18.23;54.22;100372.29;1675898;84;21250;-71
2022/07/21 04:14:03;;;;;;;;;;;;;;;18.26;54.44;100360.03;1675366;84;20209;-72
2022/07/21 04:16:31;;;;;;;;;;;;;;;18.32;54.69;100357.43;1677558;84;20177;-71
2022/07/21 04:18:57;;;;;;;;;;;;;;;18.37;54.39;100355.95;1677968;85;20137;-71
2022/07/21 04:21:25;;;;;;;;;;;;;;;18.46;54.20;100362.18;1674134;84;20153;-72
2022/07/21 04:23:51;;;;;;;;;;;;;;;18.55;54.13;100360.83;1677173;84;21074;-72
2022/07/21 04:26:17;;;;;;;;;;;;;;;18.62;53.66;100357.09;1677596;85;20176;-71
2022/07/21 04:28:44;;;;;;;;;;;;;;;18.73;53.72;100357.64;1647976;85;20411;-70
2022/07/21 04:31:10;;;;;;;;;;;;;;;18.84;53.73;100362.98;1677736;85;20128;-71
2022/07/21 04:33:37;;;;;;;;;;;;;;;18.97;53.47;100368.80;1677537;84;20145;-70
2022/07/21 04:36:04;;;;;;;;;;;;;;;19.09;52.77;100376.30;1675770;84;21210;-72
2022/07/21 04:38:31;;;;;;;;;;;;;;;19.21;52.49;100378.35;1674970;84;20171;-71
2022/07/21 04:40:57;;;;;;;;;;;;;;;19.31;52.08;100371.26;1676441;84;20192;-71
2022/07/21 04:43:23;;;;;;;;;;;;;;;19.39;51.82;100373.17;1675580;84;20519;-70
2022/07/21 04:45:50;;;;;;;;;;;;;;;19.47;51.89;100366.14;1647179;85;20217;-70
2022/07/21 04:48:18;;;;;;;;;;;;;;;19.58;51.44;100375.55;1673874;84;20209;-70
2022/07/21 04:50:45;;;;;;;;;;;;;;;19.67;50.98;100374.98;1676279;84;20175;-71
2022/07/21 04:53:11;;;;;;;;;;;;;;;19.77;50.86;100382.53;1675252;84;20454;-70
2022/07/21 04:55:38;;;;;;;;;;;;;;;19.89;50.63;100375.33;1676368;84;20474;-71
2022/07/21 04:58:04;;;;;;;;;;;;;;;20.00;50.44;100376.33;1675854;84;20186;-71
2022/07/21 05:00:30;;;;;;;;;;;;;;;20.08;49.73;100374.95;1676434;84;21352;-71
2022/07/21 05:02:57;;;;;;;;;;;;;;;20.19;49.74;100372.66;1676000;84;20176;-71
2022/07/21 05:05:23;;;;;;;;;;;;;;;20.28;49.18;100361.78;1629353;85;20131;-70
2022/07/21 05:07:49;;;;;;;;;;;;;;;20.34;48.86;100367.27;1676553;84;20208;-70
2022/07/21 05:10:17;;;;;;;;;;;;;;;20.33;49.11;100373.22;1676855;84;20165;-71
2022/07/21 05:12:44;;;;;;;;;;;;;;;20.38;49.00;100370.91;1677167;84;21337;-70
2022/07/21 05:15:13;;;;;;;;;;;;;;;20.48;48.88;100362.95;1675942;84;20212;-71
2022/07/21 05:17:41;;;;;;;;;;;;;;;20.57;49.13;100365.09;1677170;84;20165;-70
2022/07/21 05:20:09;;;;;;;;;;;;;;;20.66;48.35;100363.09;1677860;85;20153;-71
2022/07/21 05:22:38;;;;;;;;;;;;;;;20.71;48.05;100364.27;1677227;85;20133;-71
2022/07/21 05:25:05;;;;;;;;;;;;;;;20.80;47.71;100364.22;1674097;84;21141;-70
2022/07/21 05:27:32;;;;;;;;;;;;;;;20.88;47.63;100363.35;1670871;84;20193;-72
2022/07/21 05:29:58;;;;;;;;;;;;;;;20.92;47.16;100354.77;1676161;84;20165;-70
2022/07/21 05:32:24;;;;;;;;;;;;;;;20.97;47.19;100357.87;1676565;84;20156;-70
2022/07/21 05:34:51;;;;;;;;;;;;;;;21.04;46.96;100361.63;1676672;84;20145;-70
2022/07/21 05:37:17;;;;;;;;;;;;;;;21.15;46.79;100355.79;1673980;84;21810;-71
2022/07/21 05:39:43;;;;;;;;;;;;;;;21.26;46.68;100353.70;1676127;84;20162;-71
2022/07/21 05:42:10;;;;;;;;;;;;;;;21.36;46.03;100357.17;1675920;84;20176;-71
2022/07/21 05:44:36;;;;;;;;;;;;;;;21.43;45.84;100355.48;1673928;84;20393;-71
2022/07/21 05:47:04;;;;;;;;;;;;;;;21.51;45.81;100347.01;1676283;84;20200;-71
2022/07/21 05:49:31;;;;;;;;;;;;;;;21.60;45.05;100343.64;1673685;84;21806;-71
2022/07/21 05:51:59;;;;;;;;;;;;;;;21.70;45.48;100346.50;1623234;88;20226;-69
2022/07/21 05:54:27;;;;;;;;;;;;;;;21.76;44.75;100351.95;1666752;85;20167;-70
2022/07/21 05:56:53;;;;;;;;;;;;;;;21.86;44.79;100350.15;1678022;85;20654;-71
2022/07/21 05:59:19;;;;;;;;;;;;;;;21.91;44.19;100353.20;1676443;84;20219;-70
2022/07/21 06:01:45;;;;;;;;;;;;;;;21.96;44.33;100351.06;1674655;84;21184;-71
2022/07/21 06:04:13;;;;;;;;;;;;;;;22.03;43.60;100364.67;1676842;84;20183;-70
2022/07/21 06:06:39;;;;;;;;;;;;;;;22.09;43.75;100343.70;1674449;84;20148;-71
2022/07/21 06:09:13;;;;;;;;;;;;;;;22.20;43.66;100341.35;1676547;84;20597;-71
2022/07/21 06:11:39;;;;;;;;;;;;;;;22.28;43.34;100350.52;1676335;84;20204;-71
2022/07/21 06:14:12;;;;;;;;;;;;;;;22.35;43.41;100344.76;1663101;84;21104;-70
2022/07/21 06:16:45;;;;;;;;;;;;;;;22.44;43.46;100337.27;1649453;87;20163;-71
2022/07/21 06:19:18;;;;;;;;;;;;;;;22.56;43.27;100332.94;1650161;87;20244;-71
2022/07/21 06:21:51;;;;;;;;;;;;;;;22.64;42.84;100339.62;1649339;87;20193;-70
2022/07/21 06:24:22;;;;;;;;;;;;;;;22.69;42.96;100332.56;1650321;87;20172;-71
2022/07/21 06:26:59;;;;;;;;;;;;;;;22.76;42.56;100325.17;1650488;87;21203;-70
2022/07/21 06:29:32;;;;;;;;;;;;;;;22.83;42.48;100334.11;1650421;87;20203;-70
2022/07/21 06:32:14;;;;;;;;;;;;;;;22.89;42.80;100339.55;1667972;85;20147;-72
2022/07/21 06:34:44;;;;;;;;;;;;;;;23.00;42.47;100328.44;1677840;85;20323;-70
2022/07/21 06:37:17;;;;;;;;;;;;;;;22.93;41.82;100353.53;1677870;85;20244;-72
2022/07/21 06:39:51;;;;;;;;;;;;;;;23.03;41.45;100337.25;1677780;85;21056;-69
2022/07/21 06:42:19;;;;;;;;;;;;;;;23.04;41.20;100334.77;1677757;85;20173;-71
2022/07/21 06:44:47;;;;;;;;;;;;;;;23.04;40.88;100345.66;1677484;85;20236;-70
2022/07/21 06:47:40;;;;;;;;;;;;;;;23.03;41.10;100333.16;1649076;87;20727;-71
2022/07/21 06:50:08;;;;;;;;;;;;;;;23.04;40.47;100330.68;1682784;84;20176;-71
2022/07/21 06:52:35;;;;;;;;;;;;;;;23.08;40.70;100319.88;1674804;84;21113;-71
2022/07/21 06:55:03;;;;;;;;;;;;;;;23.15;40.11;100326.88;1642875;87;20144;-71
2022/07/21 06:57:30;;;;;;;;;;;;;;;23.14;40.46;100313.84;1643047;86;20144;-71
2022/07/21 06:59:56;;;;;;;;;;;;;;;23.03;40.95;100318.75;1655828;86;20184;-70
2022/07/21 07:02:23;;;;;;;;;;;;;;;23.21;41.05;100326.86;1655727;86;20179;-70
2022/07/21 07:04:50;;;;;;;;;;;;;;;23.30;40.63;100325.35;1655685;86;21151;-71
2022/07/21 07:07:18;;;;;;;;;;;;;;;23.37;40.52;100321.45;1655774;86;20151;-72
2022/07/21 07:09:44;;;;;;;;;;;;;;;23.40;39.98;100313.36;1655798;86;20155;-70
2022/07/21 07:12:11;;;;;;;;;;;;;;;23.45;40.11;100315.03;1656115;86;20906;-72
2022/07/21 07:14:37;;;;;;;;;;;;;;;23.49;40.09;100317.27;1655640;86;20397;-70
2022/07/21 07:17:04;;;;;;;;;;;;;;;23.57;39.97;100299.97;1656584;86;21498;-69
2022/07/21 07:19:31;;;;;;;;;;;;;;;23.62;40.07;100303.00;1652725;85;20476;-72
2022/07/21 07:21:58;;;;;;;;;;;;;;;23.65;39.70;100300.36;1655126;85;20196;-73
2022/07/21 07:24:25;;;;;;;;;;;;;;;23.70;40.14;100302.66;1654177;85;20920;-70
2022/07/21 07:26:51;;;;;;;;;;;;;;;23.70;39.53;100299.35;1654644;85;20157;-72
2022/07/21 07:29:17;;;;;;;;;;;;;;;23.70;39.68;100313.56;1654497;85;21070;-71
2022/07/21 07:31:44;;;;;;;;;;;;;;;23.67;39.14;100294.56;1654847;85;20225;-73
2022/07/21 07:34:11;;;;;;;;;;;;;;;23.66;39.29;100297.08;1654879;85;20210;-71
2022/07/21 07:36:37;;;;;;;;;;;;;;;23.90;38.36;100288.52;1655030;85;20140;-70
2022/07/21 07:39:04;;;;;;;;;;;;;;;23.97;38.96;100299.02;1652318;85;20194;-73
2022/07/21 07:41:33;;;;;;;;;;;;;;;24.06;38.37;100296.91;1652084;85;21141;-73
2022/07/21 07:44:00;;;;;;;;;;;;;;;24.14;38.58;100297.06;1653684;85;20190;-71
2022/07/21 07:46:26;;;;;;;;;;;;;;;24.18;38.06;100295.20;1653791;85;20488;-71
2022/07/21 07:48:52;;;;;;;;;;;;;;;24.22;37.37;100294.16;1652788;85;20151;-71
2022/07/21 07:51:19;;;;;;;;;;;;;;;24.03;38.05;100301.70;1651133;85;20152;-74
2022/07/21 07:53:46;;;;;;;;;;;;;;;23.97;37.89;100285.38;1653882;85;21875;-70
2022/07/21 07:56:13;;;;;;;;;;;;;;;23.99;37.73;100284.47;1654528;85;20171;-72
2022/07/21 07:58:40;;;;;;;;;;;;;;;23.97;37.93;100300.39;1656395;85;20175;-71
2022/07/21 08:01:06;;;;;;;;;;;;;;;24.02;37.27;100309.69;1656346;86;20174;-72
2022/07/21 08:03:33;;;;;;;;;;;;;;;24.03;37.61;100275.78;1656447;86;20147;-70
2022/07/21 08:06:03;;;;;;;;;;;;;;;24.05;37.68;100272.69;1655565;86;20517;-70
2022/07/21 08:08:29;;;;;;;;;;;;;;;24.15;37.50;100291.82;1656185;86;20164;-72
2022/07/21 08:10:55;;;;;;;;;;;;;;;24.24;36.51;100321.08;1656392;86;20151;-70
2022/07/21 08:13:22;;;;;;;;;;;;;;;24.37;36.43;100282.97;1656360;86;20605;-70
2022/07/21 08:15:50;;;;;;;;;;;;;;;24.43;36.73;100269.29;1656173;86;20474;-72
2022/07/21 08:18:17;;;;;;;;;;;;;;;24.65;36.18;100287.50;1656793;86;21107;-71
2022/07/21 08:20:44;;;;;;;;;;;;;;;24.95;36.18;100264.48;1656610;86;20135;-70
2022/07/21 08:23:11;;;;;;;;;;;;;;;25.07;35.63;100274.45;1656845;86;20138;-70
2022/07/21 08:25:37;;;;;;;;;;;;;;;25.12;35.26;100261.91;1656199;86;20151;-71
2022/07/21 08:28:04;;;;;;;;;;;;;;;25.08;35.65;100256.34;1656381;86;20142;-71
2022/07/21 08:30:30;;;;;;;;;;;;;;;25.08;35.59;100255.55;1656196;86;21249;-72
2022/07/21 08:32:58;;;;;;;;;;;;;;;25.09;35.42;100266.69;1656714;86;20477;-71
2022/07/21 08:35:25;;;;;;;;;;;;;;;25.11;35.40;100252.10;1656217;86;20151;-71
2022/07/21 08:38:03;;;;;;;;;;;;;;;25.20;35.61;100267.70;1656478;86;20171;-71
2022/07/21 08:40:31;;;;;;;;;;;;;;;25.33;34.98;100254.65;1656532;86;20441;-70
2022/07/21 08:42:58;;;;;;;;;;;;;;;25.37;34.16;100256.31;1656556;86;21249;-70
2022/07/21 08:45:25;;;;;;;;;;;;;;;25.31;33.96;100259.12;1656221;86;20189;-71
2022/07/21 08:47:52;;;;;;;;;;;;;;;25.27;34.32;100259.62;1655224;86;20271;-72
2022/07/21 08:50:19;;;;;;;;;;;;;;;25.34;34.48;100239.27;1655895;85;20237;-72
2022/07/21 08:52:45;;;;;;;;;;;;;;;25.48;34.83;100234.61;1649399;85;20182;-72
2022/07/21 08:55:12;;;;;;;;;;;;;;;25.63;35.29;100232.33;1654728;84;21247;-72
2022/07/21 08:57:39;;;;;;;;;;;;;;;25.74;35.08;100224.28;1676627;84;20160;-72
2022/07/21 09:00:07;;;;;;;;;;;;;;;25.83;34.77;100234.42;1676253;84;20387;-70
2022/07/21 09:02:35;;;;;;;;;;;;;;;25.68;34.64;100236.10;1676341;84;20301;-70
2022/07/21 09:05:04;;;;;;;;;;;;;;;25.68;34.68;100223.01;1675844;84;20243;-70
2022/07/21 09:07:49;;;;;;;;;;;;;;;25.67;34.07;100236.48;1648411;85;21133;-71
2022/07/21 09:10:26;;;;;;;;;;;;;;;25.65;34.89;100220.42;1648267;85;20209;-70
2022/07/21 09:13:01;;;;;;;;;;;;;;;25.67;34.74;100219.48;1675393;84;20215;-70
2022/07/21 09:15:31;;;;;;;;;;;;;;;25.79;34.90;100217.11;1673224;84;20207;-72
2022/07/21 09:18:13;;;;;;;;;;;;;;;25.89;34.36;100228.03;1676488;84;20455;-70
2022/07/21 09:20:47;;;;;;;;;;;;;;;26.02;33.70;100208.08;1676104;84;20543;-71
2022/07/21 09:23:15;;;;;;;;;;;;;;;26.00;33.69;100192.05;1675413;84;20537;-71
2022/07/21 09:25:45;;;;;;;;;;;;;;;26.05;34.12;100194.45;1676588;84;20244;-71
2022/07/21 09:28:21;;;;;;;;;;;;;;;26.12;34.07;100197.86;1646140;85;20299;-69
2022/07/21 09:30:57;;;;;;;;;;;;;;;26.13;33.84;100215.30;1666803;84;20145;-72
2022/07/21 09:33:36;;;;;;;;;;;;;;;26.14;34.33;100210.60;1674595;84;21925;-71
2022/07/21 09:36:08;;;;;;;;;;;;;;;26.37;34.49;100189.39;1673147;84;20305;-72
2022/07/21 09:38:38;;;;;;;;;;;;;;;26.51;34.05;100190.74;1676208;84;20207;-72
2022/07/21 09:41:13;;;;;;;;;;;;;;;26.58;34.30;100179.86;1646385;85;20143;-71
2022/07/21 09:43:43;;;;;;;;;;;;;;;26.68;33.61;100177.82;1649224;87;20242;-71
2022/07/21 09:46:15;;;;;;;;;;;;;;;26.74;33.45;100175.53;1677917;85;21162;-70
2022/07/21 09:48:46;;;;;;;;;;;;;;;26.80;33.59;100172.08;1676302;84;20495;-70
2022/07/21 09:51:30;;;;;;;;;;;;;;;26.89;33.65;100171.20;1673371;84;20184;-72
2022/07/21 09:54:00;;;;;;;;;;;;;;;26.87;33.01;100168.03;1675622;84;20524;-71
2022/07/21 09:56:29;;;;;;;;;;;;;;;26.69;33.70;100166.27;1676078;84;20485;-71
2022/07/21 09:58:57;;;;;;;;;;;;;;;26.59;33.86;100158.17;1676297;84;21156;-72
2022/07/21 10:01:24;;;;;;;;;;;;;;;26.53;33.56;100165.16;1674624;84;20145;-70
2022/07/21 10:03:51;;;;;;;;;;;;;;;26.50;33.97;100154.36;1676103;84;20422;-71
2022/07/21 10:06:22;;;;;;;;;;;;;;;26.60;34.49;100160.53;1676035;84;20215;-70
2022/07/21 10:08:48;;;;;;;;;;;;;;;26.72;33.73;100153.20;1676753;84;20177;-72
2022/07/21 10:11:14;;;;;;;;;;;;;;;26.84;33.79;100161.94;1675968;84;20758;-72
2022/07/21 10:13:41;;;;;;;;;;;;;;;26.88;33.58;100149.08;1673738;84;20168;-72
2022/07/21 10:16:10;;;;;;;;;;;;;;;27.09;33.69;100147.69;1677540;85;20208;-70
2022/07/21 10:19:00;;;;;;;;;;;;;;;27.12;34.43;100154.57;1676284;84;20252;-71
2022/07/21 10:21:43;;;;;;;;;;;;;;;27.22;33.46;100146.84;1676399;84;20211;-70
2022/07/21 10:24:10;;;;;;;;;;;;;;;27.25;32.75;100143.34;1647328;85;21127;-71
2022/07/21 10:26:39;;;;;;;;;;;;;;;27.23;32.78;100145.08;1675117;84;20449;-70
2022/07/21 10:29:06;;;;;;;;;;;;;;;27.29;33.29;100148.27;1675818;84;20447;-71
2022/07/21 10:31:36;;;;;;;;;;;;;;;27.33;33.05;100141.63;1673101;84;20180;-71
2022/07/21 10:34:02;;;;;;;;;;;;;;;27.42;33.02;100147.38;1649578;84;20247;-71
2022/07/21 10:36:37;;;;;;;;;;;;;;;27.51;32.93;100140.95;1646612;85;21879;-71
2022/07/21 10:39:17;;;;;;;;;;;;;;;27.63;33.30;100149.47;1675891;84;20191;-71
2022/07/21 10:41:50;;;;;;;;;;;;;;;27.79;32.31;100149.98;1675749;84;20173;-70
2022/07/21 10:44:32;;;;;;;;;;;;;;;27.88;32.63;100139.45;1673844;84;20212;-70
2022/07/21 10:47:23;;;;;;;;;;;;;;;27.92;32.57;100144.96;1676115;84;20222;-71
2022/07/21 10:49:57;;;;;;;;;;;;;;;27.88;32.04;100145.54;1677859;85;21251;-70
2022/07/21 10:52:41;;;;;;;;;;;;;;;27.79;32.59;100139.80;1675299;84;20148;-71
2022/07/21 10:55:34;;;;;;;;;;;;;;;27.68;32.37;100145.01;1677336;84;20467;-70
2022/07/21 10:57:43;;;;;;;;;;;;;;;27.68;32.37;100127.17;1673825;85;20152;-71
2022/07/21 11:00:19;;;;;;;;;;;;;;;27.65;32.78;100134.20;1675982;84;20610;-70
2022/07/21 11:02:48;;;;;;;;;;;;;;;27.72;32.92;100141.10;1678085;85;21942;-71
2022/07/21 11:05:14;;;;;;;;;;;;;;;27.79;32.54;100134.89;1677705;85;20180;-72
2022/07/21 11:08:17;;;;;;;;;;;;;;;27.85;32.93;100142.97;1676868;84;20238;-71
2022/07/21 11:10:46;;;;;;;;;;;;;;;27.94;32.90;100133.02;1674040;84;20177;-72
2022/07/21 11:13:14;;;;;;;;;;;;;;;28.06;32.06;100138.16;1676852;84;20177;-71
2022/07/21 11:16:00;;;;;;;;;;;;;;;28.04;32.37;100146.80;1677820;85;21874;-72
2022/07/21 11:18:31;;;;;;;;;;;;;;;27.92;32.52;100138.88;1674687;84;20494;-72
2022/07/21 11:21:15;;;;;;;;;;;;;;;27.76;32.56;100133.70;1626655;87;20506;-71
2022/07/21 11:23:47;;;;;;;;;;;;;;;27.75;33.20;100132.11;1652314;85;20168;-71
2022/07/21 11:26:16;;;;;;;;;;;;;;;27.86;32.79;100130.81;1677013;84;20266;-71
2022/07/21 11:28:43;;;;;;;;;;;;;;;27.96;32.84;100123.80;1676534;84;21910;-71
2022/07/21 11:31:12;;;;;;;;;;;;;;;28.12;33.14;100135.24;1677709;85;20168;-71
2022/07/21 11:33:40;;;;;;;;;;;;;;;28.21;32.31;100132.92;1677702;84;20184;-72
2022/07/21 11:36:07;;;;;;;;;;;;;;;28.25;32.59;100132.94;1675400;84;20228;-71
2022/07/21 11:38:34;;;;;;;;;;;;;;;28.26;32.40;100127.05;1675734;84;20169;-71
2022/07/21 11:41:17;;;;;;;;;;;;;;;28.26;32.65;100118.80;1675681;84;21267;-70
2022/07/21 11:43:44;;;;;;;;;;;;;;;28.21;33.10;100121.95;1676980;84;20177;-71
2022/07/21 11:46:11;;;;;;;;;;;;;;;28.14;32.61;100119.18;1677832;85;20463;-71
2022/07/21 11:48:37;;;;;;;;;;;;;;;28.10;32.72;100111.52;1648119;85;20189;-71
2022/07/21 11:51:04;;;;;;;;;;;;;;;28.16;32.92;100114.66;1676172;84;20533;-72
2022/07/21 11:53:31;;;;;;;;;;;;;;;28.21;32.60;100122.53;1675356;84;21176;-70
2022/07/21 11:55:58;;;;;;;;;;;;;;;28.20;33.14;100109.39;1673676;84;20141;-71
2022/07/21 11:58:24;;;;;;;;;;;;;;;28.27;32.72;100116.28;1677407;84;20443;-70
2022/07/21 12:01:05;;;;;;;;;;;;;;;28.31;32.46;100108.64;1676131;84;20212;-70
2022/07/21 12:03:32;;;;;;;;;;;;;;;28.28;33.00;100108.23;1675604;84;20173;-71
2022/07/21 12:06:00;;;;;;;;;;;;;;;28.34;33.12;100103.74;1676642;84;21133;-71
2022/07/21 12:08:29;;;;;;;;;;;;;;;28.34;33.22;100106.49;1673653;84;20172;-70
2022/07/21 12:11:08;;;;;;;;;;;;;;;28.33;32.91;100104.31;1672836;84;20174;-70
2022/07/21 12:13:53;;;;;;;;;;;;;;;28.38;32.53;100100.41;1673727;84;20177;-71
2022/07/21 12:16:19;;;;;;;;;;;;;;;28.44;32.91;100102.42;1673036;84;20156;-70
2022/07/21 12:18:46;;;;;;;;;;;;;;;28.50;32.91;100109.70;1677545;84;21819;-71
2022/07/21 12:21:13;;;;;;;;;;;;;;;28.59;32.76;100110.09;1677770;85;20150;-71
2022/07/21 12:23:39;;;;;;;;;;;;;;;28.68;32.74;100111.87;1672985;84;20523;-70
2022/07/21 12:26:06;;;;;;;;;;;;;;;28.72;32.23;100109.91;1675526;84;20633;-70
2022/07/21 12:28:52;;;;;;;;;;;;;;;28.71;32.61;100108.94;1677765;85;20211;-70
2022/07/21 12:31:23;;;;;;;;;;;;;;;28.75;32.75;100099.50;1648941;87;21758;-72
2022/07/21 12:33:49;;;;;;;;;;;;;;;28.87;32.66;100095.59;1671508;84;20148;-71
2022/07/21 12:36:15;;;;;;;;;;;;;;;28.94;32.55;100092.84;1677031;84;20485;-71
2022/07/21 12:38:46;;;;;;;;;;;;;;;28.98;32.35;100085.38;1676600;84;20221;-72
2022/07/21 12:41:18;;;;;;;;;;;;;;;29.07;32.79;100089.14;1646856;85;20142;-71
2022/07/21 12:43:59;;;;;;;;;;;;;;;29.16;32.16;100092.28;1678309;85;21099;-69
2022/07/21 12:46:32;;;;;;;;;;;;;;;29.21;32.02;100086.36;1678079;84;20430;-71